sensor_id;sensor_type;location;lat;lon;timestamp;temperature;humidity
16315;DHT22;8266;52.150;4.768;2023-05-07T00:01:37;18.90;99.90
16315;DHT22;8266;52.150;4.768;2023-05-07T00:04:04;18.80;99.90
16315;DHT22;8266;52.150;4.768;2023-05-07T00:06:32;18.80;99.90
16315;DHT22;8266;52.150;4.768;2023-05-07T00:09:00;18.80;99.90
16315;DHT22;8266;52.150;4.768;2023-05-07T00:11:27;18.80;99.90
16315;DHT22;8266;52.150;4.768;2023-05-07T00:13:54;18.80;99.90
16315;DHT22;8266;52.150;4.768;2023-05-07T00:16:21;18.80;99.90
16315;DHT22;8266;52.150;4.768;2023-05-07T00:18:48;18.70;99.90
16315;DHT22;8266;52.150;4.768;2023-05-07T00:21:15;18.70;99.90
16315;DHT22;8266;52.150;4.768;2023-05-07T00:23:42;18.70;99.90
16315;DHT22;8266;52.150;4.768;2023-05-07T00:26:11;18.70;99.90
16315;DHT22;8266;52.150;4.768;2023-05-07T00:28:38;18.60;99.90
16315;DHT22;8266;52.150;4.768;2023-05-07T00:31:05;18.60;99.90
16315;DHT22;8266;52.150;4.768;2023-05-07T00:33:32;18.60;99.90
16315;DHT22;8266;52.150;4.768;2023-05-07T00:35:59;18.50;99.90
16315;DHT22;8266;52.150;4.768;2023-05-07T00:38:27;18.50;99.90
16315;DHT22;8266;52.150;4.768;2023-05-07T00:40:54;18.50;99.90
16315;DHT22;8266;52.150;4.768;2023-05-07T00:43:22;18.40;99.90
16315;DHT22;8266;52.150;4.768;2023-05-07T00:45:49;18.40;99.90
16315;DHT22;8266;52.150;4.768;2023-05-07T00:48:17;18.40;99.90
16315;DHT22;8266;52.150;4.768;2023-05-07T00:50:44;18.40;99.90
16315;DHT22;8266;52.150;4.768;2023-05-07T00:53:12;18.30;99.90
16315;DHT22;8266;52.150;4.768;2023-05-07T00:55:39;18.30;99.90
16315;DHT22;8266;52.150;4.768;2023-05-07T00:58:07;18.30;99.90
16315;DHT22;8266;52.150;4.768;2023-05-07T01:00:35;18.20;99.90
16315;DHT22;8266;52.150;4.768;2023-05-07T01:03:02;18.20;99.90
16315;DHT22;8266;52.150;4.768;2023-05-07T01:05:29;18.20;99.90
16315;DHT22;8266;52.150;4.768;2023-05-07T01:07:57;18.20;99.90
16315;DHT22;8266;52.150;4.768;2023-05-07T01:10:24;18.10;99.90
16315;DHT22;8266;52.150;4.768;2023-05-07T01:12:52;18.10;99.90
16315;DHT22;8266;52.150;4.768;2023-05-07T01:15:20;18.10;99.90
16315;DHT22;8266;52.150;4.768;2023-05-07T01:17:48;18.10;99.90
16315;DHT22;8266;52.150;4.768;2023-05-07T01:20:15;18.10;99.90
16315;DHT22;8266;52.150;4.768;2023-05-07T01:22:45;18.10;99.90
16315;DHT22;8266;52.150;4.768;2023-05-07T01:25:13;18.10;99.90
16315;DHT22;8266;52.150;4.768;2023-05-07T01:27:42;18.10;99.90
16315;DHT22;8266;52.150;4.768;2023-05-07T01:30:09;18.10;99.90
16315;DHT22;8266;52.150;4.768;2023-05-07T01:32:42;18.00;99.90
16315;DHT22;8266;52.150;4.768;2023-05-07T01:35:12;18.00;99.90
16315;DHT22;8266;52.150;4.768;2023-05-07T01:37:41;18.00;99.90
16315;DHT22;8266;52.150;4.768;2023-05-07T01:40:10;18.00;99.90
16315;DHT22;8266;52.150;4.768;2023-05-07T01:42:37;18.00;99.90
16315;DHT22;8266;52.150;4.768;2023-05-07T01:45:05;18.00;99.90
16315;DHT22;8266;52.150;4.768;2023-05-07T01:47:33;18.00;99.90
16315;DHT22;8266;52.150;4.768;2023-05-07T01:50:00;18.00;99.90
16315;DHT22;8266;52.150;4.768;2023-05-07T01:52:27;18.00;99.90
16315;DHT22;8266;52.150;4.768;2023-05-07T01:54:55;18.00;99.90
16315;DHT22;8266;52.150;4.768;2023-05-07T01:57:24;18.00;99.90
16315;DHT22;8266;52.150;4.768;2023-05-07T01:59:51;18.00;99.90
16315;DHT22;8266;52.150;4.768;2023-05-07T02:02:18;18.00;99.90
16315;DHT22;8266;52.150;4.768;2023-05-07T02:04:45;18.00;99.90
16315;DHT22;8266;52.150;4.768;2023-05-07T02:07:12;18.00;99.90
16315;DHT22;8266;52.150;4.768;2023-05-07T02:09:39;18.00;99.90
16315;DHT22;8266;52.150;4.768;2023-05-07T02:12:06;18.00;99.90
16315;DHT22;8266;52.150;4.768;2023-05-07T02:14:34;18.00;99.90
16315;DHT22;8266;52.150;4.768;2023-05-07T02:17:01;18.00;99.90
16315;DHT22;8266;52.150;4.768;2023-05-07T02:19:28;18.00;99.90
16315;DHT22;8266;52.150;4.768;2023-05-07T02:21:55;18.00;99.90
16315;DHT22;8266;52.150;4.768;2023-05-07T02:24:22;18.00;99.90
16315;DHT22;8266;52.150;4.768;2023-05-07T02:26:49;18.00;99.90
16315;DHT22;8266;52.150;4.768;2023-05-07T02:29:15;18.00;99.90
16315;DHT22;8266;52.150;4.768;2023-05-07T02:31:44;18.00;99.90
16315;DHT22;8266;52.150;4.768;2023-05-07T02:34:11;18.00;99.90
16315;DHT22;8266;52.150;4.768;2023-05-07T02:36:38;18.10;99.90
16315;DHT22;8266;52.150;4.768;2023-05-07T02:39:05;18.10;99.90
16315;DHT22;8266;52.150;4.768;2023-05-07T02:41:32;18.10;99.90
16315;DHT22;8266;52.150;4.768;2023-05-07T02:43:59;18.10;99.90
16315;DHT22;8266;52.150;4.768;2023-05-07T02:46:26;18.10;99.90
16315;DHT22;8266;52.150;4.768;2023-05-07T02:48:54;18.10;99.90
16315;DHT22;8266;52.150;4.768;2023-05-07T02:51:22;18.10;99.90
16315;DHT22;8266;52.150;4.768;2023-05-07T02:53:49;18.10;99.90
16315;DHT22;8266;52.150;4.768;2023-05-07T02:56:16;18.10;99.90
16315;DHT22;8266;52.150;4.768;2023-05-07T02:58:43;18.10;99.90
16315;DHT22;8266;52.150;4.768;2023-05-07T03:01:10;18.10;99.90
16315;DHT22;8266;52.150;4.768;2023-05-07T03:03:39;18.10;99.90
16315;DHT22;8266;52.150;4.768;2023-05-07T03:06:08;18.10;99.90
16315;DHT22;8266;52.150;4.768;2023-05-07T03:08:35;18.10;99.90
16315;DHT22;8266;52.150;4.768;2023-05-07T03:11:02;18.10;99.90
16315;DHT22;8266;52.150;4.768;2023-05-07T03:13:28;18.10;99.90
16315;DHT22;8266;52.150;4.768;2023-05-07T03:15:55;18.10;99.90
16315;DHT22;8266;52.150;4.768;2023-05-07T03:18:22;18.10;99.90
16315;DHT22;8266;52.150;4.768;2023-05-07T03:20:49;18.00;99.90
16315;DHT22;8266;52.150;4.768;2023-05-07T03:23:18;18.00;99.90
16315;DHT22;8266;52.150;4.768;2023-05-07T03:25:45;18.00;99.90
16315;DHT22;8266;52.150;4.768;2023-05-07T03:28:12;18.00;99.90
16315;DHT22;8266;52.150;4.768;2023-05-07T03:30:39;18.10;99.90
16315;DHT22;8266;52.150;4.768;2023-05-07T03:33:05;18.10;99.90
16315;DHT22;8266;52.150;4.768;2023-05-07T03:35:33;18.10;99.90
16315;DHT22;8266;52.150;4.768;2023-05-07T03:37:59;18.10;99.90
16315;DHT22;8266;52.150;4.768;2023-05-07T03:40:28;18.10;99.90
16315;DHT22;8266;52.150;4.768;2023-05-07T03:42:55;18.10;99.90
16315;DHT22;8266;52.150;4.768;2023-05-07T03:45:22;18.10;99.90
16315;DHT22;8266;52.150;4.768;2023-05-07T03:47:49;18.10;99.90
16315;DHT22;8266;52.150;4.768;2023-05-07T03:50:16;18.10;99.90
16315;DHT22;8266;52.150;4.768;2023-05-07T03:52:43;18.10;99.90
16315;DHT22;8266;52.150;4.768;2023-05-07T03:55:10;18.10;99.90
16315;DHT22;8266;52.150;4.768;2023-05-07T03:57:38;18.10;99.90
16315;DHT22;8266;52.150;4.768;2023-05-07T04:00:06;18.10;99.90
16315;DHT22;8266;52.150;4.768;2023-05-07T04:02:33;18.10;99.90
16315;DHT22;8266;52.150;4.768;2023-05-07T04:05:00;18.10;99.90
16315;DHT22;8266;52.150;4.768;2023-05-07T04:07:27;18.20;99.90
16315;DHT22;8266;52.150;4.768;2023-05-07T04:09:54;18.10;99.90
16315;DHT22;8266;52.150;4.768;2023-05-07T04:12:21;18.10;99.90
16315;DHT22;8266;52.150;4.768;2023-05-07T04:14:50;18.10;99.90
16315;DHT22;8266;52.150;4.768;2023-05-07T04:17:16;18.20;99.90
16315;DHT22;8266;52.150;4.768;2023-05-07T04:19:44;18.10;99.90
16315;DHT22;8266;52.150;4.768;2023-05-07T04:22:11;18.20;99.90
16315;DHT22;8266;52.150;4.768;2023-05-07T04:24:38;18.20;99.90
16315;DHT22;8266;52.150;4.768;2023-05-07T04:27:05;18.20;99.90
16315;DHT22;8266;52.150;4.768;2023-05-07T04:29:32;18.10;99.90
16315;DHT22;8266;52.150;4.768;2023-05-07T04:32:00;18.10;99.90
16315;DHT22;8266;52.150;4.768;2023-05-07T04:34:27;18.10;99.90
16315;DHT22;8266;52.150;4.768;2023-05-07T04:36:57;18.10;99.90
16315;DHT22;8266;52.150;4.768;2023-05-07T04:39:24;18.20;99.90
16315;DHT22;8266;52.150;4.768;2023-05-07T04:41:51;18.10;99.90
16315;DHT22;8266;52.150;4.768;2023-05-07T04:44:17;18.10;99.90
16315;DHT22;8266;52.150;4.768;2023-05-07T04:46:44;18.20;99.90
16315;DHT22;8266;52.150;4.768;2023-05-07T04:49:13;18.10;99.90
16315;DHT22;8266;52.150;4.768;2023-05-07T04:51:40;18.10;99.90
16315;DHT22;8266;52.150;4.768;2023-05-07T04:54:08;18.10;99.90
16315;DHT22;8266;52.150;4.768;2023-05-07T04:56:35;18.10;99.90
16315;DHT22;8266;52.150;4.768;2023-05-07T04:59:02;18.10;99.90
16315;DHT22;8266;52.150;4.768;2023-05-07T05:01:29;18.10;99.90
16315;DHT22;8266;52.150;4.768;2023-05-07T05:03:56;18.10;99.90
16315;DHT22;8266;52.150;4.768;2023-05-07T05:06:24;18.10;99.90
16315;DHT22;8266;52.150;4.768;2023-05-07T05:08:51;18.00;99.90
16315;DHT22;8266;52.150;4.768;2023-05-07T05:11:19;18.00;99.90
16315;DHT22;8266;52.150;4.768;2023-05-07T05:13:46;18.00;99.90
16315;DHT22;8266;52.150;4.768;2023-05-07T05:16:14;18.00;99.90
16315;DHT22;8266;52.150;4.768;2023-05-07T05:18:41;18.00;99.90
16315;DHT22;8266;52.150;4.768;2023-05-07T05:21:08;18.00;99.90
16315;DHT22;8266;52.150;4.768;2023-05-07T05:23:36;18.00;99.90
16315;DHT22;8266;52.150;4.768;2023-05-07T05:26:04;18.00;99.90
16315;DHT22;8266;52.150;4.768;2023-05-07T05:28:31;18.00;99.90
16315;DHT22;8266;52.150;4.768;2023-05-07T05:30:58;18.10;99.90
16315;DHT22;8266;52.150;4.768;2023-05-07T05:33:25;18.10;99.90
16315;DHT22;8266;52.150;4.768;2023-05-07T05:35:53;18.10;99.90
16315;DHT22;8266;52.150;4.768;2023-05-07T05:38:20;18.10;99.90
16315;DHT22;8266;52.150;4.768;2023-05-07T05:40:49;18.20;99.90
16315;DHT22;8266;52.150;4.768;2023-05-07T05:43:16;18.20;99.90
16315;DHT22;8266;52.150;4.768;2023-05-07T05:45:43;18.30;99.90
16315;DHT22;8266;52.150;4.768;2023-05-07T05:48:10;18.30;99.90
16315;DHT22;8266;52.150;4.768;2023-05-07T05:50:37;18.30;99.90
16315;DHT22;8266;52.150;4.768;2023-05-07T05:53:04;18.30;99.90
16315;DHT22;8266;52.150;4.768;2023-05-07T05:55:31;18.30;99.90
16315;DHT22;8266;52.150;4.768;2023-05-07T05:58:00;18.30;99.90
16315;DHT22;8266;52.150;4.768;2023-05-07T06:00:27;18.30;99.90
16315;DHT22;8266;52.150;4.768;2023-05-07T06:02:54;18.40;99.90
16315;DHT22;8266;52.150;4.768;2023-05-07T06:05:21;18.40;99.90
16315;DHT22;8266;52.150;4.768;2023-05-07T06:07:48;18.40;99.90
16315;DHT22;8266;52.150;4.768;2023-05-07T06:10:15;18.40;99.90
16315;DHT22;8266;52.150;4.768;2023-05-07T06:12:42;18.40;99.90
16315;DHT22;8266;52.150;4.768;2023-05-07T06:15:11;18.40;99.90
16315;DHT22;8266;52.150;4.768;2023-05-07T06:17:38;18.50;99.90
16315;DHT22;8266;52.150;4.768;2023-05-07T06:20:06;18.40;99.90
16315;DHT22;8266;52.150;4.768;2023-05-07T06:22:33;18.40;99.90
16315;DHT22;8266;52.150;4.768;2023-05-07T06:25:00;18.40;99.90
16315;DHT22;8266;52.150;4.768;2023-05-07T06:27:27;18.50;99.90
16315;DHT22;8266;52.150;4.768;2023-05-07T06:29:54;18.50;99.90
16315;DHT22;8266;52.150;4.768;2023-05-07T06:32:23;18.50;99.90
16315;DHT22;8266;52.150;4.768;2023-05-07T06:34:50;18.50;99.90
16315;DHT22;8266;52.150;4.768;2023-05-07T06:37:17;18.50;99.90
16315;DHT22;8266;52.150;4.768;2023-05-07T06:39:44;18.60;99.90
16315;DHT22;8266;52.150;4.768;2023-05-07T06:42:11;18.60;99.90
16315;DHT22;8266;52.150;4.768;2023-05-07T06:44:38;18.60;99.90
16315;DHT22;8266;52.150;4.768;2023-05-07T06:47:05;18.70;99.90
16315;DHT22;8266;52.150;4.768;2023-05-07T06:49:33;18.70;99.90
16315;DHT22;8266;52.150;4.768;2023-05-07T06:52:00;18.70;99.90
16315;DHT22;8266;52.150;4.768;2023-05-07T06:54:27;18.70;99.90
16315;DHT22;8266;52.150;4.768;2023-05-07T06:56:54;18.70;99.90
16315;DHT22;8266;52.150;4.768;2023-05-07T06:59:21;18.80;99.90
16315;DHT22;8266;52.150;4.768;2023-05-07T07:01:48;18.80;99.90
16315;DHT22;8266;52.150;4.768;2023-05-07T07:04:15;18.90;99.90
16315;DHT22;8266;52.150;4.768;2023-05-07T07:06:43;18.90;99.90
16315;DHT22;8266;52.150;4.768;2023-05-07T07:09:10;19.00;99.90
16315;DHT22;8266;52.150;4.768;2023-05-07T07:11:37;19.10;99.90
16315;DHT22;8266;52.150;4.768;2023-05-07T07:14:05;19.20;99.90
16315;DHT22;8266;52.150;4.768;2023-05-07T07:16:32;19.40;99.90
16315;DHT22;8266;52.150;4.768;2023-05-07T07:18:58;19.60;99.90
16315;DHT22;8266;52.150;4.768;2023-05-07T07:21:26;19.90;99.90
16315;DHT22;8266;52.150;4.768;2023-05-07T07:23:54;20.20;99.90
16315;DHT22;8266;52.150;4.768;2023-05-07T07:26:21;20.40;99.90
16315;DHT22;8266;52.150;4.768;2023-05-07T07:28:48;20.50;99.90
16315;DHT22;8266;52.150;4.768;2023-05-07T07:31:15;20.50;99.90
16315;DHT22;8266;52.150;4.768;2023-05-07T07:33:42;20.50;99.90
16315;DHT22;8266;52.150;4.768;2023-05-07T07:36:09;20.50;99.90
16315;DHT22;8266;52.150;4.768;2023-05-07T07:38:36;20.50;99.90
16315;DHT22;8266;52.150;4.768;2023-05-07T07:41:05;20.50;99.90
16315;DHT22;8266;52.150;4.768;2023-05-07T07:43:32;20.40;99.90
16315;DHT22;8266;52.150;4.768;2023-05-07T07:45:59;20.40;99.90
16315;DHT22;8266;52.150;4.768;2023-05-07T07:48:26;20.30;99.90
16315;DHT22;8266;52.150;4.768;2023-05-07T07:50:53;20.30;99.90
16315;DHT22;8266;52.150;4.768;2023-05-07T07:53:20;20.40;99.90
16315;DHT22;8266;52.150;4.768;2023-05-07T07:55:47;20.40;99.90
16315;DHT22;8266;52.150;4.768;2023-05-07T07:58:15;20.50;99.90
16315;DHT22;8266;52.150;4.768;2023-05-07T08:00:42;20.70;99.90
16315;DHT22;8266;52.150;4.768;2023-05-07T08:03:09;20.80;99.90
16315;DHT22;8266;52.150;4.768;2023-05-07T08:05:36;20.90;99.90
16315;DHT22;8266;52.150;4.768;2023-05-07T08:08:05;21.00;99.90
16315;DHT22;8266;52.150;4.768;2023-05-07T08:10:33;21.20;99.90
16315;DHT22;8266;52.150;4.768;2023-05-07T08:13:04;21.60;99.90
16315;DHT22;8266;52.150;4.768;2023-05-07T08:15:32;21.90;99.90
16315;DHT22;8266;52.150;4.768;2023-05-07T08:18:02;22.40;99.90
16315;DHT22;8266;52.150;4.768;2023-05-07T08:20:29;22.80;99.90
16315;DHT22;8266;52.150;4.768;2023-05-07T08:22:56;23.30;99.90
16315;DHT22;8266;52.150;4.768;2023-05-07T08:25:23;23.70;99.90
16315;DHT22;8266;52.150;4.768;2023-05-07T08:27:50;24.10;99.90
16315;DHT22;8266;52.150;4.768;2023-05-07T08:30:17;24.50;99.90
16315;DHT22;8266;52.150;4.768;2023-05-07T08:32:45;24.90;99.90
16315;DHT22;8266;52.150;4.768;2023-05-07T08:35:12;25.30;99.90
16315;DHT22;8266;52.150;4.768;2023-05-07T08:37:40;25.60;99.90
16315;DHT22;8266;52.150;4.768;2023-05-07T08:40:07;25.80;99.90
16315;DHT22;8266;52.150;4.768;2023-05-07T08:42:36;26.10;99.90
16315;DHT22;8266;52.150;4.768;2023-05-07T08:45:04;26.40;99.90
16315;DHT22;8266;52.150;4.768;2023-05-07T08:47:41;26.70;99.90
16315;DHT22;8266;52.150;4.768;2023-05-07T08:50:11;27.00;99.90
16315;DHT22;8266;52.150;4.768;2023-05-07T08:52:39;27.20;99.90
16315;DHT22;8266;52.150;4.768;2023-05-07T08:55:07;27.40;99.90
16315;DHT22;8266;52.150;4.768;2023-05-07T08:57:35;27.40;99.90
16315;DHT22;8266;52.150;4.768;2023-05-07T09:00:03;27.40;99.90
16315;DHT22;8266;52.150;4.768;2023-05-07T09:02:30;27.40;99.90
16315;DHT22;8266;52.150;4.768;2023-05-07T09:04:57;27.30;99.90
16315;DHT22;8266;52.150;4.768;2023-05-07T09:07:25;27.10;99.90
16315;DHT22;8266;52.150;4.768;2023-05-07T09:09:52;27.00;99.90
16315;DHT22;8266;52.150;4.768;2023-05-07T09:12:20;26.80;99.90
16315;DHT22;8266;52.150;4.768;2023-05-07T09:14:48;26.70;99.90
16315;DHT22;8266;52.150;4.768;2023-05-07T09:17:15;26.60;99.90
16315;DHT22;8266;52.150;4.768;2023-05-07T09:19:44;26.60;99.90
16315;DHT22;8266;52.150;4.768;2023-05-07T09:22:11;26.60;99.90
16315;DHT22;8266;52.150;4.768;2023-05-07T09:24:39;26.60;99.90
16315;DHT22;8266;52.150;4.768;2023-05-07T09:27:07;26.60;99.90
16315;DHT22;8266;52.150;4.768;2023-05-07T09:29:35;26.50;99.90
16315;DHT22;8266;52.150;4.768;2023-05-07T09:32:03;26.50;99.90
16315;DHT22;8266;52.150;4.768;2023-05-07T09:34:30;26.50;99.90
16315;DHT22;8266;52.150;4.768;2023-05-07T09:36:59;26.40;99.90
16315;DHT22;8266;52.150;4.768;2023-05-07T09:39:39;26.40;99.90
16315;DHT22;8266;52.150;4.768;2023-05-07T09:42:07;26.40;99.90
16315;DHT22;8266;52.150;4.768;2023-05-07T09:44:34;26.40;99.90
16315;DHT22;8266;52.150;4.768;2023-05-07T09:47:05;26.50;99.90
16315;DHT22;8266;52.150;4.768;2023-05-07T09:49:34;26.50;99.90
16315;DHT22;8266;52.150;4.768;2023-05-07T09:52:02;26.60;99.90
16315;DHT22;8266;52.150;4.768;2023-05-07T09:54:31;26.60;99.90
16315;DHT22;8266;52.150;4.768;2023-05-07T09:57:01;26.70;99.90
16315;DHT22;8266;52.150;4.768;2023-05-07T09:59:30;26.80;99.90
16315;DHT22;8266;52.150;4.768;2023-05-07T10:01:59;26.80;99.90
16315;DHT22;8266;52.150;4.768;2023-05-07T10:04:26;26.90;99.90
16315;DHT22;8266;52.150;4.768;2023-05-07T10:06:54;26.90;99.90
16315;DHT22;8266;52.150;4.768;2023-05-07T10:09:22;27.00;99.90
16315;DHT22;8266;52.150;4.768;2023-05-07T10:11:51;27.00;99.90
16315;DHT22;8266;52.150;4.768;2023-05-07T10:14:20;27.10;99.90
16315;DHT22;8266;52.150;4.768;2023-05-07T10:16:48;27.20;99.90
16315;DHT22;8266;52.150;4.768;2023-05-07T10:19:15;27.30;99.90
16315;DHT22;8266;52.150;4.768;2023-05-07T10:21:44;27.20;99.90
16315;DHT22;8266;52.150;4.768;2023-05-07T10:24:19;27.10;99.90
16315;DHT22;8266;52.150;4.768;2023-05-07T10:26:49;27.10;99.90
16315;DHT22;8266;52.150;4.768;2023-05-07T10:29:21;27.00;99.90
16315;DHT22;8266;52.150;4.768;2023-05-07T10:31:57;27.00;99.90
16315;DHT22;8266;52.150;4.768;2023-05-07T10:34:29;27.00;99.90
16315;DHT22;8266;52.150;4.768;2023-05-07T10:36:59;27.00;99.90
16315;DHT22;8266;52.150;4.768;2023-05-07T10:39:27;27.10;99.90
16315;DHT22;8266;52.150;4.768;2023-05-07T10:41:54;27.10;99.90
16315;DHT22;8266;52.150;4.768;2023-05-07T10:44:31;27.10;99.90
16315;DHT22;8266;52.150;4.768;2023-05-07T10:47:08;27.20;99.90
16315;DHT22;8266;52.150;4.768;2023-05-07T10:49:36;27.30;99.90
16315;DHT22;8266;52.150;4.768;2023-05-07T10:52:14;27.40;99.90
16315;DHT22;8266;52.150;4.768;2023-05-07T10:54:42;27.50;99.90
16315;DHT22;8266;52.150;4.768;2023-05-07T10:57:35;27.60;99.90
16315;DHT22;8266;52.150;4.768;2023-05-07T11:00:41;27.70;99.90
16315;DHT22;8266;52.150;4.768;2023-05-07T11:03:09;27.70;99.90
16315;DHT22;8266;52.150;4.768;2023-05-07T11:05:36;27.70;99.90
16315;DHT22;8266;52.150;4.768;2023-05-07T11:08:04;27.70;99.90
16315;DHT22;8266;52.150;4.768;2023-05-07T11:10:51;27.60;99.90
16315;DHT22;8266;52.150;4.768;2023-05-07T11:13:41;27.60;99.90
16315;DHT22;8266;52.150;4.768;2023-05-07T11:16:18;27.60;99.90
16315;DHT22;8266;52.150;4.768;2023-05-07T11:18:47;27.70;99.90
16315;DHT22;8266;52.150;4.768;2023-05-07T11:21:32;27.70;99.90
16315;DHT22;8266;52.150;4.768;2023-05-07T11:23:59;27.80;99.90
16315;DHT22;8266;52.150;4.768;2023-05-07T11:26:28;27.90;99.90
16315;DHT22;8266;52.150;4.768;2023-05-07T11:28:55;27.90;99.90
16315;DHT22;8266;52.150;4.768;2023-05-07T11:31:26;28.00;99.90
16315;DHT22;8266;52.150;4.768;2023-05-07T11:33:55;28.20;99.90
16315;DHT22;8266;52.150;4.768;2023-05-07T11:36:24;28.20;99.90
16315;DHT22;8266;52.150;4.768;2023-05-07T11:38:52;28.30;99.90
16315;DHT22;8266;52.150;4.768;2023-05-07T11:41:19;28.40;99.90
16315;DHT22;8266;52.150;4.768;2023-05-07T11:43:55;28.40;99.90
16315;DHT22;8266;52.150;4.768;2023-05-07T11:46:24;28.40;99.90
16315;DHT22;8266;52.150;4.768;2023-05-07T11:48:51;28.50;99.90
16315;DHT22;8266;52.150;4.768;2023-05-07T11:51:19;28.50;99.90
16315;DHT22;8266;52.150;4.768;2023-05-07T11:53:47;28.60;99.90
16315;DHT22;8266;52.150;4.768;2023-05-07T11:56:16;28.60;99.90
16315;DHT22;8266;52.150;4.768;2023-05-07T11:58:44;28.60;99.90
16315;DHT22;8266;52.150;4.768;2023-05-07T12:01:13;28.60;99.90
16315;DHT22;8266;52.150;4.768;2023-05-07T12:03:42;28.60;99.90
16315;DHT22;8266;52.150;4.768;2023-05-07T12:06:11;28.60;99.90
16315;DHT22;8266;52.150;4.768;2023-05-07T12:08:40;28.50;99.90
16315;DHT22;8266;52.150;4.768;2023-05-07T12:11:08;28.40;99.90
16315;DHT22;8266;52.150;4.768;2023-05-07T12:13:37;28.30;99.90
16315;DHT22;8266;52.150;4.768;2023-05-07T12:16:06;28.30;99.90
16315;DHT22;8266;52.150;4.768;2023-05-07T12:18:35;28.20;99.90
16315;DHT22;8266;52.150;4.768;2023-05-07T12:21:04;28.20;99.90
16315;DHT22;8266;52.150;4.768;2023-05-07T12:23:31;28.20;99.90
16315;DHT22;8266;52.150;4.768;2023-05-07T12:25:59;28.20;99.90
16315;DHT22;8266;52.150;4.768;2023-05-07T12:28:26;28.30;99.90
16315;DHT22;8266;52.150;4.768;2023-05-07T12:30:53;28.30;99.90
16315;DHT22;8266;52.150;4.768;2023-05-07T12:33:25;28.30;99.90
16315;DHT22;8266;52.150;4.768;2023-05-07T12:35:54;28.30;99.90
16315;DHT22;8266;52.150;4.768;2023-05-07T12:38:23;28.40;99.90
16315;DHT22;8266;52.150;4.768;2023-05-07T12:40:53;28.50;99.90
16315;DHT22;8266;52.150;4.768;2023-05-07T12:43:21;28.50;99.90
16315;DHT22;8266;52.150;4.768;2023-05-07T12:45:49;28.60;99.90
16315;DHT22;8266;52.150;4.768;2023-05-07T12:48:17;28.60;99.90
16315;DHT22;8266;52.150;4.768;2023-05-07T12:50:48;28.70;99.90
16315;DHT22;8266;52.150;4.768;2023-05-07T12:53:15;28.70;99.90
16315;DHT22;8266;52.150;4.768;2023-05-07T12:55:45;28.80;99.90
16315;DHT22;8266;52.150;4.768;2023-05-07T12:58:16;28.80;99.90
16315;DHT22;8266;52.150;4.768;2023-05-07T13:00:44;28.80;99.90
16315;DHT22;8266;52.150;4.768;2023-05-07T13:03:11;28.80;99.90
16315;DHT22;8266;52.150;4.768;2023-05-07T13:05:39;28.80;99.90
16315;DHT22;8266;52.150;4.768;2023-05-07T13:08:06;28.80;99.90
16315;DHT22;8266;52.150;4.768;2023-05-07T13:10:35;28.70;99.90
16315;DHT22;8266;52.150;4.768;2023-05-07T13:13:04;28.70;99.90
16315;DHT22;8266;52.150;4.768;2023-05-07T13:15:31;28.60;99.90
16315;DHT22;8266;52.150;4.768;2023-05-07T13:17:58;28.50;99.90
16315;DHT22;8266;52.150;4.768;2023-05-07T13:20:25;28.40;99.90
16315;DHT22;8266;52.150;4.768;2023-05-07T13:22:52;28.30;99.90
16315;DHT22;8266;52.150;4.768;2023-05-07T13:25:19;28.20;99.90
16315;DHT22;8266;52.150;4.768;2023-05-07T13:27:46;28.10;99.90
16315;DHT22;8266;52.150;4.768;2023-05-07T13:30:14;28.00;99.90
16315;DHT22;8266;52.150;4.768;2023-05-07T13:32:42;27.90;99.90
16315;DHT22;8266;52.150;4.768;2023-05-07T13:35:09;27.70;99.90
16315;DHT22;8266;52.150;4.768;2023-05-07T13:37:36;27.50;99.90
16315;DHT22;8266;52.150;4.768;2023-05-07T13:40:04;27.20;99.90
16315;DHT22;8266;52.150;4.768;2023-05-07T13:42:31;27.00;99.90
16315;DHT22;8266;52.150;4.768;2023-05-07T13:44:58;26.80;99.90
16315;DHT22;8266;52.150;4.768;2023-05-07T13:47:27;26.60;99.90
16315;DHT22;8266;52.150;4.768;2023-05-07T13:49:54;26.30;99.90
16315;DHT22;8266;52.150;4.768;2023-05-07T13:52:21;26.20;99.90
16315;DHT22;8266;52.150;4.768;2023-05-07T13:54:48;26.00;99.90
16315;DHT22;8266;52.150;4.768;2023-05-07T13:57:17;25.80;99.90
16315;DHT22;8266;52.150;4.768;2023-05-07T13:59:44;25.60;99.90
16315;DHT22;8266;52.150;4.768;2023-05-07T14:02:11;25.40;99.90
16315;DHT22;8266;52.150;4.768;2023-05-07T14:04:39;25.20;99.90
16315;DHT22;8266;52.150;4.768;2023-05-07T14:07:06;25.00;99.90
16315;DHT22;8266;52.150;4.768;2023-05-07T14:09:33;24.70;99.90
16315;DHT22;8266;52.150;4.768;2023-05-07T14:12:00;24.50;99.90
16315;DHT22;8266;52.150;4.768;2023-05-07T14:14:27;24.20;99.90
16315;DHT22;8266;52.150;4.768;2023-05-07T14:16:54;23.90;99.90
16315;DHT22;8266;52.150;4.768;2023-05-07T14:19:21;23.70;99.90
16315;DHT22;8266;52.150;4.768;2023-05-07T14:21:50;23.50;99.90
16315;DHT22;8266;52.150;4.768;2023-05-07T14:24:17;23.20;99.90
16315;DHT22;8266;52.150;4.768;2023-05-07T14:26:44;23.00;99.90
16315;DHT22;8266;52.150;4.768;2023-05-07T14:29:12;22.90;99.90
16315;DHT22;8266;52.150;4.768;2023-05-07T14:31:41;22.70;99.90
16315;DHT22;8266;52.150;4.768;2023-05-07T14:34:08;22.60;99.90
16315;DHT22;8266;52.150;4.768;2023-05-07T14:36:35;22.60;99.90
16315;DHT22;8266;52.150;4.768;2023-05-07T14:39:03;22.50;99.90
16315;DHT22;8266;52.150;4.768;2023-05-07T14:41:30;22.50;99.90
16315;DHT22;8266;52.150;4.768;2023-05-07T14:43:58;22.40;99.90
16315;DHT22;8266;52.150;4.768;2023-05-07T14:46:25;22.30;99.90
16315;DHT22;8266;52.150;4.768;2023-05-07T14:48:52;22.30;99.90
16315;DHT22;8266;52.150;4.768;2023-05-07T14:51:20;22.10;99.90
16315;DHT22;8266;52.150;4.768;2023-05-07T14:53:47;22.00;99.90
16315;DHT22;8266;52.150;4.768;2023-05-07T14:56:16;21.90;99.90
16315;DHT22;8266;52.150;4.768;2023-05-07T14:58:43;21.80;99.90
16315;DHT22;8266;52.150;4.768;2023-05-07T15:01:10;21.70;99.90
16315;DHT22;8266;52.150;4.768;2023-05-07T15:03:37;21.60;99.90
16315;DHT22;8266;52.150;4.768;2023-05-07T15:06:04;21.60;99.90
16315;DHT22;8266;52.150;4.768;2023-05-07T15:08:31;21.50;99.90
16315;DHT22;8266;52.150;4.768;2023-05-07T15:10:58;21.50;99.90
16315;DHT22;8266;52.150;4.768;2023-05-07T15:13:27;21.40;99.90
16315;DHT22;8266;52.150;4.768;2023-05-07T15:15:54;21.40;99.90
16315;DHT22;8266;52.150;4.768;2023-05-07T15:18:21;21.40;99.90
16315;DHT22;8266;52.150;4.768;2023-05-07T15:20:48;21.30;99.90
16315;DHT22;8266;52.150;4.768;2023-05-07T15:23:15;21.30;99.90
16315;DHT22;8266;52.150;4.768;2023-05-07T15:25:42;21.20;99.90
16315;DHT22;8266;52.150;4.768;2023-05-07T15:28:09;21.10;99.90
16315;DHT22;8266;52.150;4.768;2023-05-07T15:30:37;21.00;99.90
16315;DHT22;8266;52.150;4.768;2023-05-07T15:33:04;21.00;99.90
16315;DHT22;8266;52.150;4.768;2023-05-07T15:35:31;20.90;99.90
16315;DHT22;8266;52.150;4.768;2023-05-07T15:37:58;20.90;99.90
16315;DHT22;8266;52.150;4.768;2023-05-07T15:40:25;20.80;99.90
16315;DHT22;8266;52.150;4.768;2023-05-07T15:42:54;20.80;99.90
16315;DHT22;8266;52.150;4.768;2023-05-07T15:45:21;20.70;99.90
16315;DHT22;8266;52.150;4.768;2023-05-07T15:47:50;20.60;99.90
16315;DHT22;8266;52.150;4.768;2023-05-07T15:50:17;20.60;99.90